LiveATC.Net - Listen to live air traffic control over the Internet!


ICAO: TJPS  IATA: PSE   Airport: Mercedita Airport
City: Ponce   State/Province: Puerto Rico
Country: United States   Continent: North America
TJPS METAR Weather: TJPS 221815Z AUTO 14017G22KT 10SM VCTS SCT050 BKN065 31/24 A2994 RMK AO2 LTG DSNT W-N PWINO
TJPS ADS-B Flight Tracking  (ADSBExchange)
TJPS Flight Activity (FlightAware)

TJPS Del/CTAF/Center
Feed Status: UP   Listeners: 0
Listen in your browser - HTML5 player (in browser, HTML5)
Click here to listen with your own player (launches your MP3 player)
Archive Access: TJPS Del/CTAF/Center
FacilityFrequency
Mercedita Clearance Delivery (San Juan CERAP)121.900
Mercedita CTAF122.700
San Juan Center118.750

NOTICE

Unauthorized use prohibited. See LiveATC.net Terms of Service


Airport/ARTCC Code
Frequency Search
(e.g., 124.400, 128.75)
Site-wide search
 


Browse Feeds
Top 50 Feeds
HF Oceanic Feeds
Coverage Map
Bad Weather Areas

LiveATC FAQ

Increase Coverage

Contact LiveATC.net
Press Inquiries

LiveATC on iPhone
LiveATC on Android

LiveATC Mobile
(Mobile browser)

ATC Audio Archives
Interesting Recordings

LiveATC Forums


Home Page
About LiveATC.net


Terms of Use
Privacy Policy

AIRMETs/SIGMETs

FAA Airport Status
NAS Status
Arrival Demand


Server Software By:
Icecast.org
Liquidsoap